Aviation Digital Data Service (ADDS)

Output produced by METARs form (2322 UTC 23 May 2022)
found at http://www.aviationweather.gov/metar/data/
 
LYPG 232300Z 36004KT 240V010 CAVOK 20/13 Q1011 NOSIG
TAF LYPG 232300Z 2400/2424 36006KT 9999 FEW040 TX30/2413Z TN14/2403Z
       
LYTV 232300Z AUTO VRB01KT CAVOK 15/15 Q1011
TAF LYTV 232300Z 2400/2424 03005KT CAVOK TX27/2413Z TN12/2403Z